NZAAYSNF

Guest
Details From NZAA - Auckland International
To YSNF - Norfolk Island Intl
Flight Number -
Tags Generated
Created
Modified
Stats Distance 589 nm / 1,091 km
Max Altitude 0 ft / 0 m
Waypoints 3
Social Downloads 3
Likes 0
Share VATSIM

Download

Looking for another format? Having issues loading an existing format? Contact us
Advertisement - Login to hide

Notes

Generated

Route

NZAA NF YSNF

ID Type Via Altitude Latitude Longitude Leg Dist Tot Dist Heading (true) Name
O NZAA APT - 0 ft / 0 m -37.01438˚ 174.77090˚ - 0 nm - -
NF VOR - 0 ft / 0 m -29.04733˚ 167.93217˚ 589 nm 589 nm 322° / 326° NORFOLK ISLAND VOR-DME
O YSNF APT - 0 ft / 0 m -29.04738˚ 167.93255˚ 0 nm 589 nm 98° / 98° -

Altitude Profile

Advertisement - Login to hide

Weather


0- 5 10 15 20 25 30 35+ Temperature / ° C

Clouds and Precipitation
Forecast for 2017-12-16 12:00 UTC. Updated 2 hours ago

Ground ~20,000 ft ~40,000 ft Winds

NZAA

Details ICAO NZAA (AKL)
Name Auckland International
Region New Zealand and Antarctica
Timezone Pacific/Auckland (UTC+13.0)
Stats Elevation 23 ft / 7 m (AMSL)
Location -37.010794° 174.787331°
Runways 2
Magnetic Variation 19.833° E

METAR

NZAA 160900Z AUTO 22011KT 9999 SCT021/// SCT060/// 20/17 Q1018 NOSIG

Decode

TAF

TAF NZAA 160514Z 1606/1706 23012KT 9999 SCT030 BECMG 1610/1612 VRB02KT BECMG 1700/1702 23010KT TEMPO 1701/1706 5000 SHRA FEW020TCU

Decode

Departure Runways

ID Width Length Bearing (true) Bearing (mag) Surface Threshold Offset Overrun Length
05L 157 ft / 48 m 10,844 ft / 3,305 m 70.91° 51.08° Concrete 1,240 ft / 378 m 460 ft / 140 m
05R 152 ft / 46 m 12,085 ft / 3,684 m 70.96° 51.13° Concrete 1,270 ft / 387 m 0 ft / 0 m
23L 152 ft / 46 m 12,085 ft / 3,684 m 250.94° 231.11° Concrete 0 ft / 0 m 0 ft / 0 m
23R 157 ft / 48 m 10,844 ft / 3,305 m 250.89° 231.06° Concrete 1,060 ft / 323 m 0 ft / 0 m

YSNF

Details ICAO YSNF (NLK)
Name Norfolk Island Intl
Region Australia
Timezone Pacific/Norfolk (UTC+11.0)
Stats Elevation 371 ft / 113 m (AMSL)
Location -29.042060° 167.938575°
Runways 2
Magnetic Variation 14.974° E

METAR

YSNF 160900Z AUTO 09010KT 9999 // SCT025 SCT032 SCT042 20/16 Q1018

Decode

TAF

TAF YSNF 160526Z 1606/1706 10015G25KT 9999 SCT030 FM161200 10014KT 9999 SCT030

Decode

Destination Runways

ID Width Length Bearing (true) Bearing (mag) Surface Threshold Offset Overrun Length
04 98 ft / 30 m 5,115 ft / 1,559 m 49.90° 34.93° Asphalt 397 ft / 121 m 0 ft / 0 m
11 151 ft / 46 m 6,588 ft / 2,008 m 122.24° 107.27° Asphalt 197 ft / 60 m 0 ft / 0 m
22 98 ft / 30 m 5,115 ft / 1,559 m 229.90° 214.93° Asphalt 0 ft / 0 m 0 ft / 0 m
29 151 ft / 46 m 6,588 ft / 2,008 m 302.23° 287.26° Asphalt 197 ft / 60 m 0 ft / 0 m

Popular Alternatives